Time;durP1;ratioP1;P1;durP2;ratioP2;P2;SDS_P1;SDS_P2;PMS_P1;PMS_P2;Temp;Humidity;BMP_temperature;BMP_pressure;BME280_temperature;BME280_humidity;BME280_pressure;Samples;Min_cycle;Max_cycle;Signal;HPM_P1;HPM_P2
2023/09/27 00:00:26;;;;;;;20.70;17.30;;;;;;;15.19;83.54;101811.02;108008;1259;62699;-67
2023/09/27 00:02:55;;;;;;;18.30;16.00;;;;;;;15.17;83.76;101811.08;108060;1254;60331;-67
2023/09/27 00:05:23;;;;;;;19.70;16.30;;;;;;;15.14;83.86;101810.08;108045;1254;72554;-67
2023/09/27 00:07:51;;;;;;;19.20;16.10;;;;;;;15.13;83.98;101810.54;107982;1257;72766;-67
2023/09/27 00:10:19;;;;;;;18.90;16.60;;;;;;;15.12;84.04;101809.19;107883;1257;71478;-67
2023/09/27 00:12:47;;;;;;;20.10;16.30;;;;;;;15.14;83.99;101805.77;108049;1259;60457;-68
2023/09/27 00:15:14;;;;;;;20.30;17.40;;;;;;;15.11;84.17;101808.49;107942;1254;60291;-67
2023/09/27 00:17:43;;;;;;;20.50;16.60;;;;;;;15.17;84.05;101804.58;107902;1254;73862;-67
2023/09/27 00:20:15;;;;;;;20.80;16.30;;;;;;;15.15;84.09;101802.29;108054;1254;71447;-68
2023/09/27 00:22:44;;;;;;;18.50;15.90;;;;;;;15.11;84.23;101802.45;108042;1259;71538;-67
2023/09/27 00:25:12;;;;;;;21.00;16.90;;;;;;;15.09;84.26;101802.86;108086;1254;60673;-67
2023/09/27 00:27:41;;;;;;;20.70;16.60;;;;;;;15.09;84.40;101804.73;108114;1254;60349;-68
2023/09/27 00:30:09;;;;;;;20.90;15.90;;;;;;;15.09;84.42;101806.05;108080;1255;73949;-68
2023/09/27 00:32:37;;;;;;;20.90;15.90;;;;;;;15.09;84.41;101803.89;108034;1255;71431;-68
2023/09/27 00:35:11;;;;;;;18.20;15.50;;;;;;;15.04;84.49;101805.48;108000;1254;71723;-69
2023/09/27 00:37:39;;;;;;;19.90;17.00;;;;;;;14.95;84.81;101801.79;108131;1254;60372;-67
2023/09/27 00:40:10;;;;;;;19.40;15.70;;;;;;;14.94;85.01;101800.86;108034;1256;59078;-68
2023/09/27 00:42:40;;;;;;;21.30;15.90;;;;;;;14.94;85.11;101802.38;108076;1258;72623;-68
2023/09/27 00:45:08;;;;;;;18.50;15.20;;;;;;;14.96;85.11;101804.55;107968;1257;75374;-67
2023/09/27 00:47:37;;;;;;;18.10;15.30;;;;;;;15.03;84.85;101800.39;107999;1255;72714;-68
2023/09/27 00:50:08;;;;;;;17.00;14.70;;;;;;;15.01;84.73;101796.40;107946;1255;60583;-68
2023/09/27 00:52:40;;;;;;;18.20;15.30;;;;;;;14.96;84.78;101795.28;107963;1256;62009;-68
2023/09/27 00:55:09;;;;;;;;;;;;;;;14.93;84.71;101794.13;108081;1254;73856;-67
2023/09/27 00:57:36;;;;;;;18.60;15.70;;;;;;;14.92;84.74;101792.88;108083;1254;71283;-67
2023/09/27 01:00:05;;;;;;;19.30;14.90;;;;;;;14.92;84.72;101791.86;107988;1254;71377;-68
2023/09/27 01:02:33;;;;;;;18.20;15.10;;;;;;;14.89;84.76;101790.31;107978;1254;60419;-67
2023/09/27 01:05:01;;;;;;;18.50;15.60;;;;;;;14.87;84.74;101789.98;107937;1259;60335;-67
2023/09/27 01:07:29;;;;;;;19.60;15.40;;;;;;;14.84;84.76;101788.88;107996;1260;73911;-67
2023/09/27 01:09:56;;;;;;;18.90;15.90;;;;;;;14.81;84.73;101796.11;108055;1260;71244;-68
2023/09/27 01:12:25;;;;;;;17.10;14.50;;;;;;;14.77;84.79;101791.50;107951;1254;71467;-67
2023/09/27 01:14:53;;;;;;;18.00;15.00;;;;;;;14.75;84.95;101794.23;107986;1260;61723;-67
2023/09/27 01:17:21;;;;;;;16.30;14.60;;;;;;;14.73;84.97;101793.34;107938;1257;60344;-68
2023/09/27 01:19:48;;;;;;;18.40;15.10;;;;;;;14.73;85.08;101793.56;107863;1254;73932;-69
2023/09/27 01:22:16;;;;;;;17.50;14.80;;;;;;;14.72;84.98;101791.02;107935;1260;72686;-67
2023/09/27 01:24:44;;;;;;;17.70;14.50;;;;;;;14.72;85.03;101791.67;107998;1260;73135;-68
2023/09/27 01:27:11;;;;;;;17.30;15.00;;;;;;;14.71;85.01;101793.23;107926;1254;61694;-68
2023/09/27 01:29:39;;;;;;;16.10;14.40;;;;;;;14.67;85.00;101797.48;108087;1259;60028;-66
2023/09/27 01:32:07;;;;;;;18.20;15.10;;;;;;;14.65;84.95;101798.48;108067;1254;73858;-68
2023/09/27 01:34:35;;;;;;;16.90;14.60;;;;;;;14.61;85.14;101794.62;107952;1254;73183;-67
2023/09/27 01:37:05;;;;;;;16.30;14.50;;;;;;;14.58;85.15;101801.64;107974;1254;72748;-67
2023/09/27 01:39:33;;;;;;;16.60;14.00;;;;;;;14.60;84.92;101799.83;108056;1258;60383;-68
2023/09/27 01:42:01;;;;;;;17.50;14.30;;;;;;;14.57;85.01;101804.21;108041;1259;60355;-68
2023/09/27 01:44:28;;;;;;;15.50;13.60;;;;;;;14.54;84.91;101807.73;108025;1254;73885;-67
2023/09/27 01:46:56;;;;;;;18.50;14.70;;;;;;;14.58;84.87;101804.05;108019;1254;72832;-68
2023/09/27 01:49:24;;;;;;;16.00;14.30;;;;;;;14.63;84.56;101803.89;107944;1254;73665;-68
2023/09/27 01:51:52;;;;;;;15.90;13.70;;;;;;;14.61;84.40;101805.77;108012;1259;60638;-68
2023/09/27 01:54:20;;;;;;;18.10;14.40;;;;;;;14.58;84.27;101806.05;107961;1255;62196;-68
2023/09/27 01:56:47;;;;;;;15.70;14.00;;;;;;;14.57;84.28;101805.88;107835;1254;73931;-68
2023/09/27 01:59:15;;;;;;;18.20;14.20;;;;;;;14.55;84.20;101806.72;107982;1260;71371;-68
2023/09/27 02:01:43;;;;;;;16.00;13.90;;;;;;;14.53;84.21;101805.84;107976;1259;72685;-68
2023/09/27 02:04:10;;;;;;;17.10;13.60;;;;;;;14.53;84.20;101805.84;108004;1260;61646;-68
2023/09/27 02:06:38;;;;;;;18.60;14.40;;;;;;;14.53;84.22;101808.73;108006;1253;60093;-68
2023/09/27 02:09:06;;;;;;;16.10;13.50;;;;;;;14.52;84.14;101810.45;108059;1254;72618;-68
2023/09/27 02:11:33;;;;;;;15.20;13.30;;;;;;;14.50;84.29;101811.85;107905;1254;72735;-68
2023/09/27 02:14:04;;;;;;;16.60;13.90;;;;;;;14.48;84.34;101809.25;108028;1254;71536;-68
2023/09/27 02:16:33;;;;;;;14.50;13.00;;;;;;;14.48;84.38;101813.61;108101;1259;60482;-68
2023/09/27 02:19:04;;;;;;;16.30;14.10;;;;;;;14.47;84.27;101809.81;107819;1257;60358;-68
2023/09/27 02:21:32;;;;;;;15.60;13.10;;;;;;;14.47;84.28;101808.95;108005;1254;72612;-68
2023/09/27 02:24:00;;;;;;;15.60;13.20;;;;;;;14.46;84.38;101807.67;108048;1254;71958;-67
2023/09/27 02:26:28;;;;;;;17.30;13.40;;;;;;;14.45;84.31;101808.75;107994;1260;72789;-67
2023/09/27 02:28:56;;;;;;;16.40;13.50;;;;;;;14.46;84.23;101808.42;108170;1260;61796;-67
2023/09/27 02:31:24;;;;;;;16.50;13.70;;;;;;;14.44;84.18;101812.27;108062;1254;60222;-67
2023/09/27 02:33:52;;;;;;;15.80;13.40;;;;;;;14.44;84.21;101813.72;108103;1254;72784;-67
2023/09/27 02:36:20;;;;;;;16.00;13.10;;;;;;;14.43;84.22;101815.27;108034;1256;73038;-67
2023/09/27 02:38:48;;;;;;;13.90;12.40;;;;;;;14.40;84.20;101812.50;108127;1256;71372;-67
2023/09/27 02:41:16;;;;;;;15.60;12.40;;;;;;;14.38;84.19;101813.22;108068;1254;62758;-67
2023/09/27 02:43:43;;;;;;;14.50;12.00;;;;;;;14.36;84.07;101815.73;108060;1257;60264;-67
2023/09/27 02:46:11;;;;;;;14.40;12.90;;;;;;;14.34;84.10;101818.44;108152;1257;73876;-68
2023/09/27 02:48:39;;;;;;;13.90;12.40;;;;;;;14.28;84.27;101817.89;108142;1257;71189;-68
2023/09/27 02:51:07;;;;;;;12.70;11.30;;;;;;;14.31;84.30;101818.46;107987;1256;70808;-67
2023/09/27 02:53:35;;;;;;;14.00;11.10;;;;;;;14.31;84.25;101819.66;107730;1257;61725;-67
2023/09/27 02:56:05;;;;;;;14.50;12.00;;;;;;;14.31;84.15;101819.49;107948;1255;60284;-67
2023/09/27 02:58:32;;;;;;;15.30;11.40;;;;;;;14.30;84.14;101822.48;108091;1254;73746;-67
2023/09/27 03:01:00;;;;;;;13.60;11.90;;;;;;;14.31;84.11;101823.19;108089;1259;71455;-67
2023/09/27 03:03:30;;;;;;;14.50;11.80;;;;;;;14.29;84.05;101825.23;108130;1259;71436;-67
2023/09/27 03:05:59;;;;;;;13.00;11.50;;;;;;;14.28;84.02;101823.44;108144;1254;61668;-66
2023/09/27 03:08:26;;;;;;;14.70;11.40;;;;;;;14.25;84.08;101821.74;107995;1254;60850;-68
2023/09/27 03:10:54;;;;;;;15.20;11.00;;;;;;;14.24;84.00;101819.61;107806;1254;74312;-67
2023/09/27 03:13:22;;;;;;;13.40;11.70;;;;;;;14.21;84.08;101819.73;108084;1254;73097;-67
2023/09/27 03:15:56;;;;;;;13.00;11.60;;;;;;;14.21;84.16;101818.23;107959;1257;72069;-67
2023/09/27 03:18:24;;;;;;;12.60;11.10;;;;;;;14.21;84.10;101821.07;107997;1257;60570;-67
2023/09/27 03:20:52;;;;;;;13.00;11.60;;;;;;;14.21;84.10;101819.24;108014;1260;60128;-67
2023/09/27 03:23:20;;;;;;;13.60;12.10;;;;;;;14.20;83.95;101824.02;107874;1254;74781;-67
2023/09/27 03:25:49;;;;;;;13.00;11.10;;;;;;;14.19;84.03;101823.81;107905;1254;72606;-67
2023/09/27 03:28:17;;;;;;;13.50;11.00;;;;;;;14.18;83.92;101822.82;107861;1260;72763;-67
2023/09/27 03:30:46;;;;;;;12.10;10.80;;;;;;;14.16;83.79;101822.42;107955;1254;61766;-67
2023/09/27 03:33:14;;;;;;;14.40;11.40;;;;;;;14.12;83.79;101818.40;107995;1255;60348;-67
2023/09/27 03:35:42;;;;;;;13.60;11.70;;;;;;;14.08;83.69;101823.01;107925;1258;72665;-68
2023/09/27 03:38:10;;;;;;;12.90;11.30;;;;;;;14.04;83.77;101820.73;107918;1256;72714;-67
2023/09/27 03:40:40;;;;;;;12.00;10.30;;;;;;;14.01;83.62;101819.33;107894;1254;71341;-68
2023/09/27 03:43:07;;;;;;;12.10;10.50;;;;;;;13.96;83.56;101819.53;107923;1257;60420;-68
2023/09/27 03:45:38;;;;;;;12.30;10.90;;;;;;;13.90;83.61;101821.18;107937;1254;60021;-67
2023/09/27 03:48:07;;;;;;;12.30;10.90;;;;;;;13.83;83.60;101826.23;107956;1254;73854;-67
2023/09/27 03:50:35;;;;;;;14.80;11.40;;;;;;;13.82;83.86;101825.73;107901;1260;72767;-68
2023/09/27 03:53:04;;;;;;;12.00;10.40;;;;;;;13.82;83.73;101828.20;108081;1254;71064;-68
2023/09/27 03:55:32;;;;;;;11.60;10.40;;;;;;;13.75;83.82;101828.48;107484;1254;369712;-68
2023/09/27 03:57:59;;;;;;;11.60;10.30;;;;;;;13.74;84.00;101833.73;107980;1254;60079;-67
2023/09/27 04:00:27;;;;;;;12.00;10.80;;;;;;;13.73;84.13;101836.89;108003;1254;72640;-68
2023/09/27 04:02:55;;;;;;;11.10;9.70;;;;;;;13.72;84.13;101836.78;108115;1259;72938;-68
2023/09/27 04:17:04;;;;;;;15.10;10.90;;;;;;;13.59;84.63;101824.76;104913;1292;599990;-68
2023/09/27 04:19:32;;;;;;;10.60;9.50;;;;;;;13.60;84.71;101831.39;107362;1266;61758;-68
2023/09/27 04:22:00;;;;;;;11.30;10.00;;;;;;;13.67;84.70;101831.21;107489;1260;59512;-68
2023/09/27 04:24:28;;;;;;;11.70;9.70;;;;;;;13.76;84.52;101835.69;107582;1260;70941;-68
2023/09/27 04:26:55;;;;;;;12.00;10.10;;;;;;;13.80;84.45;101838.80;107435;1260;71461;-68
2023/09/27 04:29:23;;;;;;;11.30;10.00;;;;;;;13.84;84.47;101834.04;107427;1260;72753;-68
2023/09/27 04:31:50;;;;;;;10.40;9.10;;;;;;;13.88;84.28;101837.05;107484;1259;222343;-68
2023/09/27 04:34:18;;;;;;;11.30;9.80;;;;;;;13.91;84.34;101835.54;107658;1259;59483;-68
2023/09/27 04:36:47;;;;;;;12.30;10.70;;;;;;;13.96;84.41;101837.38;107641;1259;70945;-67
2023/09/27 04:39:17;;;;;;;10.50;9.10;;;;;;;14.00;84.34;101834.41;107760;1259;71705;-68
2023/09/27 04:41:46;;;;;;;11.20;9.70;;;;;;;14.02;84.28;101833.75;107706;1260;71135;-67
2023/09/27 04:44:14;;;;;;;11.40;9.80;;;;;;;14.04;84.14;101828.63;107575;1263;60811;-67
2023/09/27 04:46:41;;;;;;;14.60;10.50;;;;;;;14.07;84.14;101826.02;107575;1259;60049;-68
2023/09/27 04:49:09;;;;;;;11.60;10.00;;;;;;;14.10;83.97;101824.44;107613;1257;72056;-68
2023/09/27 04:51:37;;;;;;;11.90;9.70;;;;;;;14.14;84.14;101825.62;107668;1259;71785;-69
2023/09/27 04:54:05;;;;;;;12.90;9.80;;;;;;;14.18;84.03;101826.59;107576;1259;70142;-67
2023/09/27 04:56:32;;;;;;;12.30;9.60;;;;;;;14.20;83.81;101828.70;107490;1259;61679;-67
2023/09/27 04:59:05;;;;;;;12.40;10.00;;;;;;;14.21;83.84;101826.04;107701;1260;60074;-66
2023/09/27 05:01:32;;;;;;;13.60;9.90;;;;;;;14.25;83.73;101825.55;107795;1259;71837;-67
2023/09/27 05:04:00;;;;;;;12.70;10.70;;;;;;;14.30;83.73;101833.84;108097;1255;71081;-67
2023/09/27 05:06:28;;;;;;;11.30;9.70;;;;;;;14.35;83.65;101832.92;107909;1253;71418;-69
2023/09/27 05:08:55;;;;;;;13.30;10.30;;;;;;;14.39;83.54;101833.34;107903;1253;61643;-68
2023/09/27 05:11:23;;;;;;;12.10;9.60;;;;;;;14.41;83.37;101834.33;108015;1253;60072;-68
2023/09/27 05:13:51;;;;;;;11.40;10.20;;;;;;;14.41;83.30;101835.30;108050;1255;72089;-69
2023/09/27 05:16:19;;;;;;;13.70;10.30;;;;;;;14.47;83.21;101835.42;107903;1257;72722;-68
2023/09/27 05:18:47;;;;;;;11.20;10.00;;;;;;;14.53;83.02;101839.66;107859;1256;71463;-68
2023/09/27 05:21:14;;;;;;;14.30;10.40;;;;;;;14.58;82.95;101840.80;107915;1254;62100;-70
2023/09/27 05:23:42;;;;;;;11.80;9.90;;;;;;;14.64;82.72;101840.63;108026;1256;59986;-68
2023/09/27 05:26:11;;;;;;;12.60;10.30;;;;;;;14.69;82.62;101839.89;107733;1254;72399;-68
2023/09/27 05:28:39;;;;;;;13.90;10.70;;;;;;;14.76;82.63;101841.69;107764;1255;71588;-68
2023/09/27 05:31:07;;;;;;;12.40;10.60;;;;;;;14.85;82.52;101841.92;107834;1255;72672;-68
2023/09/27 05:33:35;;;;;;;10.80;9.00;;;;;;;14.93;82.54;101841.96;107939;1254;60441;-68
2023/09/27 05:36:03;;;;;;;11.80;10.10;;;;;;;15.03;82.35;101841.35;107968;1255;59985;-68
2023/09/27 05:38:31;;;;;;;13.40;10.70;;;;;;;15.13;82.36;101841.17;107988;1256;71769;-68
2023/09/27 05:40:59;;;;;;;11.40;9.90;;;;;;;15.22;82.12;101843.61;107844;1256;71573;-68
2023/09/27 05:43:26;;;;;;;11.70;10.40;;;;;;;15.31;82.03;101846.91;107853;1254;73212;-68
2023/09/27 05:45:56;;;;;;;12.40;10.00;;;;;;;15.42;81.79;101847.23;107849;1259;60470;-68
2023/09/27 05:48:24;;;;;;;12.30;9.80;;;;;;;15.48;81.33;101849.75;107831;1254;60028;-68
2023/09/27 05:50:52;;;;;;;14.90;10.60;;;;;;;15.56;81.24;101849.42;107882;1257;71850;-68
2023/09/27 05:53:19;;;;;;;11.30;9.90;;;;;;;15.59;81.19;101854.24;107693;1256;72492;-67
2023/09/27 05:55:48;;;;;;;11.80;10.00;;;;;;;15.66;81.04;101855.61;107993;1253;70383;-67
2023/09/27 05:58:15;;;;;;;12.40;10.50;;;;;;;15.73;80.68;101853.02;108147;1253;60426;-68
2023/09/27 06:00:46;;;;;;;12.00;9.90;;;;;;;15.86;80.25;101853.91;108184;1254;60097;-67
2023/09/27 06:03:14;;;;;;;12.30;10.50;;;;;;;15.96;79.87;101854.77;108183;1253;73056;-68
2023/09/27 06:05:42;;;;;;;14.60;10.60;;;;;;;16.05;79.72;101852.93;108070;1259;71986;-68
2023/09/27 06:08:10;;;;;;;17.30;10.50;;;;;;;16.15;79.37;101852.77;108068;1256;71605;-68
2023/09/27 06:10:37;;;;;;;17.60;11.50;;;;;;;16.25;79.21;101857.13;108088;1253;61876;-68
2023/09/27 06:13:05;;;;;;;16.50;10.70;;;;;;;16.33;79.01;101855.75;108112;1255;62316;-68
2023/09/27 06:15:33;;;;;;;12.60;11.10;;;;;;;16.45;78.82;101855.05;108029;1253;73208;-68
2023/09/27 06:18:03;;;;;;;11.40;9.90;;;;;;;16.60;78.40;101854.08;108106;1254;72776;-68
2023/09/27 06:20:32;;;;;;;13.00;10.60;;;;;;;16.72;77.98;101856.00;108087;1254;72699;-68
2023/09/27 06:23:03;;;;;;;14.20;10.30;;;;;;;16.82;77.55;101856.25;108080;1259;61639;-68
2023/09/27 06:25:34;;;;;;;11.90;9.80;;;;;;;16.93;77.25;101855.35;108079;1253;59506;-68
2023/09/27 06:28:02;;;;;;;15.30;10.40;;;;;;;17.01;76.94;101857.26;108229;1253;71724;-67
2023/09/27 06:30:30;;;;;;;14.90;10.40;;;;;;;17.10;76.53;101857.38;108229;1254;70986;-69
2023/09/27 06:32:58;;;;;;;13.90;10.60;;;;;;;17.21;76.25;101858.73;108067;1259;72771;-68
2023/09/27 06:35:26;;;;;;;12.70;10.60;;;;;;;17.32;75.90;101856.95;108063;1256;60412;-68
2023/09/27 06:37:54;;;;;;;12.00;10.70;;;;;;;17.42;75.35;101857.02;108051;1254;59504;-68
2023/09/27 06:40:23;;;;;;;12.80;10.60;;;;;;;17.51;75.12;101857.00;108047;1255;72061;-68
2023/09/27 06:42:50;;;;;;;14.20;11.30;;;;;;;17.66;74.97;101852.59;108127;1254;72733;-68
2023/09/27 06:45:19;;;;;;;14.80;11.30;;;;;;;17.79;74.49;101853.41;108111;1251;72734;-68
2023/09/27 06:47:47;;;;;;;14.30;10.20;;;;;;;17.92;74.09;101853.33;108252;1251;61697;-67
2023/09/27 06:50:16;;;;;;;13.80;10.40;;;;;;;17.99;73.53;101854.83;108105;1254;59733;-68
2023/09/27 06:52:45;;;;;;;14.30;10.50;;;;;;;18.05;73.08;101854.80;108189;1251;71735;-67
2023/09/27 06:55:16;;;;;;;12.70;10.50;;;;;;;18.15;72.92;101856.71;108211;1252;71572;-67
2023/09/27 06:57:49;;;;;;;15.00;11.00;;;;;;;18.28;72.46;101858.89;108220;1258;72907;-67
2023/09/27 07:00:24;;;;;;;12.20;10.40;;;;;;;18.40;71.98;101859.97;108097;1253;61714;-68
2023/09/27 07:02:52;;;;;;;14.80;11.10;;;;;;;18.52;71.60;101853.64;108258;1256;59816;-67
2023/09/27 07:05:21;;;;;;;13.90;11.60;;;;;;;18.64;71.31;101851.14;108131;1254;71898;-68
2023/09/27 07:07:53;;;;;;;14.40;11.60;;;;;;;18.71;71.03;101850.08;108175;1253;72914;-68
2023/09/27 07:10:21;;;;;;;15.10;11.50;;;;;;;18.88;70.48;101851.55;108035;1254;71374;-68
2023/09/27 07:12:50;;;;;;;16.30;12.20;;;;;;;19.01;69.95;101848.38;108092;1254;60472;-68
2023/09/27 07:15:17;;;;;;;14.20;11.80;;;;;;;19.12;69.60;101851.39;108043;1253;60187;-68
2023/09/27 07:17:47;;;;;;;17.60;12.20;;;;;;;19.24;69.21;101849.60;108036;1254;73791;-68
2023/09/27 07:20:34;;;;;;;17.60;12.30;;;;;;;19.37;68.76;101847.65;108122;1254;71660;-68
2023/09/27 07:23:07;;;;;;;15.10;11.50;;;;;;;19.45;67.98;101841.77;108188;1255;72760;-68
2023/09/27 07:25:37;;;;;;;17.50;12.50;;;;;;;19.54;67.81;101846.56;108090;1251;62014;-69
2023/09/27 07:28:05;;;;;;;13.80;11.70;;;;;;;19.66;67.46;101844.09;108116;1254;59583;-69
2023/09/27 07:30:33;;;;;;;15.20;12.90;;;;;;;19.77;66.99;101844.25;108187;1254;73085;-68
2023/09/27 07:33:06;;;;;;;16.30;12.30;;;;;;;19.90;66.56;101848.13;108061;1253;72784;-68
2023/09/27 07:35:35;;;;;;;16.90;12.30;;;;;;;20.06;66.27;101846.11;108079;1259;71505;-68
2023/09/27 07:38:03;;;;;;;16.40;12.50;;;;;;;20.19;65.62;101841.45;108151;1259;59342;-68
2023/09/27 07:40:30;;;;;;;18.60;12.90;;;;;;;20.31;65.35;101840.97;108176;1253;59602;-68
2023/09/27 07:42:58;;;;;;;14.80;12.20;;;;;;;20.44;64.91;101837.16;108234;1253;73139;-69
2023/09/27 07:45:30;;;;;;;15.20;11.40;;;;;;;20.56;64.67;101836.58;107912;1259;72637;-68
2023/09/27 07:47:58;;;;;;;17.30;12.70;;;;;;;20.70;64.38;101837.90;108023;1251;72693;-68
2023/09/27 07:50:33;;;;;;;16.70;12.50;;;;;;;20.86;64.00;101832.77;108065;1254;60060;-67
2023/09/27 07:53:06;;;;;;;16.60;12.50;;;;;;;20.99;63.20;101833.39;108055;1256;60128;-67
2023/09/27 07:55:43;;;;;;;14.60;11.70;;;;;;;21.11;62.61;101831.41;108207;1253;73205;-67
2023/09/27 07:58:12;;;;;;;15.80;12.00;;;;;;;21.22;61.93;101827.96;107881;1255;72783;-67
2023/09/27 08:00:40;;;;;;;16.60;12.90;;;;;;;21.33;61.49;101826.27;107972;1253;72682;-68
2023/09/27 08:03:09;;;;;;;16.30;13.00;;;;;;;21.40;61.35;101822.45;107918;1254;62112;-68
2023/09/27 08:05:44;;;;;;;15.10;11.40;;;;;;;21.51;61.19;101824.59;107937;1255;60045;-68
2023/09/27 08:08:12;;;;;;;14.90;13.30;;;;;;;21.68;61.13;101823.09;108004;1254;72040;-68
2023/09/27 08:10:47;;;;;;;17.00;12.10;;;;;;;21.82;60.20;101823.85;108164;1253;71559;-68
2023/09/27 08:13:17;;;;;;;18.10;12.50;;;;;;;21.94;59.81;101821.39;107905;1254;73124;-68
2023/09/27 08:15:49;;;;;;;14.60;11.90;;;;;;;22.05;59.64;101813.01;107907;1259;59421;-68
2023/09/27 08:18:16;;;;;;;12.90;11.10;;;;;;;22.17;59.62;101815.11;108026;1253;60150;-68
2023/09/27 08:20:44;;;;;;;14.40;12.30;;;;;;;22.32;58.71;101811.05;108000;1253;75065;-68
2023/09/27 08:23:12;;;;;;;14.90;10.80;;;;;;;22.49;57.81;101808.63;108107;1254;72848;-68
2023/09/27 08:25:40;;;;;;;12.80;9.70;;;;;;;22.58;56.99;101802.98;108303;1254;72756;-67
2023/09/27 08:28:09;;;;;;;12.30;9.90;;;;;;;22.64;57.08;101800.55;108128;1257;60345;-68
2023/09/27 08:30:36;;;;;;;12.10;9.10;;;;;;;22.75;56.60;101797.97;108012;1254;60550;-67
2023/09/27 08:33:04;;;;;;;12.10;10.10;;;;;;;22.83;56.39;101798.59;108208;1257;72562;-70
2023/09/27 08:35:32;;;;;;;11.20;8.70;;;;;;;22.95;55.59;101797.50;108253;1254;73135;-68
2023/09/27 08:38:00;;;;;;;11.80;8.80;;;;;;;23.04;55.42;101793.38;108268;1254;71981;-70
2023/09/27 08:40:28;;;;;;;14.00;8.70;;;;;;;23.14;55.21;101791.51;108160;1253;61771;-69
2023/09/27 08:43:00;;;;;;;11.80;8.30;;;;;;;23.23;54.93;101793.48;108127;1258;60787;-69
2023/09/27 08:45:27;;;;;;;11.20;8.40;;;;;;;23.29;54.69;101788.02;108213;1254;73912;-68
2023/09/27 08:47:55;;;;;;;10.60;8.00;;;;;;;23.32;54.21;101786.70;108133;1257;72507;-70
2023/09/27 08:50:23;;;;;;;10.90;8.30;;;;;;;23.40;54.02;101789.11;108047;1254;72981;-69
2023/09/27 08:52:51;;;;;;;9.40;8.40;;;;;;;23.50;53.55;101788.61;108075;1254;60284;-70
2023/09/27 08:55:19;;;;;;;12.20;9.00;;;;;;;23.60;53.20;101788.00;108301;1254;60364;-70
2023/09/27 08:57:48;;;;;;;9.10;8.00;;;;;;;23.69;53.06;101786.09;108209;1258;73755;-69
2023/09/27 09:00:21;;;;;;;12.50;8.50;;;;;;;23.82;52.73;101790.04;108141;1251;71955;-68
2023/09/27 09:02:52;;;;;;;9.70;7.90;;;;;;;23.96;52.84;101786.75;108219;1256;72961;-69
2023/09/27 09:05:20;;;;;;;10.40;7.80;;;;;;;24.11;52.90;101785.20;108244;1257;60552;-69
2023/09/27 09:07:48;;;;;;;12.00;8.30;;;;;;;24.28;52.66;101782.23;108707;1251;60344;-69
2023/09/27 09:10:16;;;;;;;9.90;8.00;;;;;;;24.38;51.16;101781.93;108070;1254;74916;-70
2023/09/27 09:12:45;;;;;;;9.30;7.90;;;;;;;24.38;49.97;101781.55;108252;1251;71808;-69
2023/09/27 09:15:35;;;;;;;9.50;7.40;;;;;;;24.35;49.77;101779.30;108215;1251;72808;-69
2023/09/27 09:18:06;;;;;;;;;;;;;;;24.40;49.77;101780.46;108161;1255;61245;-69
2023/09/27 09:20:49;;;;;;;9.80;6.60;;;;;;;24.42;49.38;101775.77;108306;1251;60437;-68
2023/09/27 09:23:29;;;;;;;8.80;7.00;;;;;;;24.44;49.43;101772.03;108025;1254;73229;-68
2023/09/27 09:25:58;;;;;;;10.40;7.10;;;;;;;24.53;49.22;101773.96;108331;1251;75000;-70
2023/09/27 09:28:27;;;;;;;10.60;7.80;;;;;;;24.65;49.45;101769.67;108166;1253;73640;-69
2023/09/27 09:30:54;;;;;;;9.20;7.20;;;;;;;24.77;48.84;101766.61;108004;1252;60432;-69
2023/09/27 09:33:28;;;;;;;8.10;7.00;;;;;;;24.84;48.57;101767.43;108266;1251;62249;-69
2023/09/27 09:35:56;;;;;;;9.00;6.90;;;;;;;24.91;48.23;101767.42;108206;1257;76612;-69
2023/09/27 09:38:25;;;;;;;9.60;6.70;;;;;;;24.96;47.23;101762.88;108132;1253;71446;-69
2023/09/27 09:40:55;;;;;;;9.30;7.10;;;;;;;24.93;47.27;101760.73;108134;1253;75401;-69
2023/09/27 09:43:36;;;;;;;10.20;7.30;;;;;;;24.93;47.68;101761.89;108192;1254;60516;-70
2023/09/27 09:46:08;;;;;;;;;;;;;;;24.99;47.65;101761.61;108184;1254;62821;-68
2023/09/27 09:48:38;;;;;;;7.70;6.00;;;;;;;25.07;47.06;101755.22;108208;1254;73829;-70
2023/09/27 09:51:16;;;;;;;9.30;6.80;;;;;;;25.15;46.23;101754.89;108138;1254;71725;-69
2023/09/27 09:53:44;;;;;;;10.60;6.60;;;;;;;25.20;45.98;101754.58;108220;1251;72889;-69
2023/09/27 09:56:13;;;;;;;9.50;6.90;;;;;;;25.26;46.03;101753.77;108151;1254;60312;-70
2023/09/27 09:58:51;;;;;;;8.00;5.90;;;;;;;25.32;46.30;101749.89;108340;1253;60197;-69
2023/09/27 10:01:22;;;;;;;8.40;6.70;;;;;;;25.40;45.26;101748.80;108170;1251;74272;-71
2023/09/27 10:03:51;;;;;;;10.70;6.70;;;;;;;25.41;45.25;101748.63;108206;1257;72972;-69
2023/09/27 10:06:19;;;;;;;9.40;7.00;;;;;;;25.45;45.62;101747.61;108222;1252;71690;-68
2023/09/27 10:09:05;;;;;;;9.80;6.60;;;;;;;25.56;45.49;101745.95;108090;1253;60313;-69
2023/09/27 10:11:33;;;;;;;10.90;6.70;;;;;;;25.64;45.72;101740.91;107999;1254;60398;-69
2023/09/27 10:14:02;;;;;;;12.60;6.90;;;;;;;25.72;45.59;101734.08;108165;1254;74442;-70
2023/09/27 10:16:30;;;;;;;10.20;7.10;;;;;;;25.83;45.12;101735.77;108196;1254;72727;-70
2023/09/27 10:18:58;;;;;;;9.50;6.80;;;;;;;25.93;44.89;101730.91;108201;1254;73591;-70
2023/09/27 10:21:26;;;;;;;9.90;7.30;;;;;;;25.99;44.67;101725.17;108168;1251;60256;-69
2023/09/27 10:23:58;;;;;;;9.60;7.00;;;;;;;26.05;44.82;101724.27;108026;1253;60532;-71
2023/09/27 10:26:35;;;;;;;7.50;6.40;;;;;;;26.14;44.28;101720.51;108184;1251;76627;-69
2023/09/27 10:29:13;;;;;;;9.80;6.10;;;;;;;26.22;44.19;101719.00;108277;1251;73090;-68
2023/09/27 10:31:54;;;;;;;7.50;5.60;;;;;;;26.28;43.24;101719.01;108153;1251;71658;-69
2023/09/27 10:34:42;;;;;;;9.70;6.20;;;;;;;26.38;43.01;101718.83;108212;1251;60473;-70
2023/09/27 10:37:10;;;;;;;11.40;5.90;;;;;;;26.43;42.07;101720.16;108162;1251;59504;-70
2023/09/27 10:40:07;;;;;;;9.00;5.80;;;;;;;26.47;41.39;101719.98;108238;1257;65012;-70
2023/09/27 10:42:40;;;;;;;8.00;5.40;;;;;;;26.48;41.68;101716.27;108131;1251;73089;-69
2023/09/27 10:45:11;;;;;;;6.80;5.30;;;;;;;26.42;41.19;101712.92;108142;1251;72672;-69
2023/09/27 10:47:38;;;;;;;8.30;5.40;;;;;;;26.45;41.05;101712.24;108107;1251;60443;-68
2023/09/27 10:50:06;;;;;;;8.30;5.40;;;;;;;26.43;40.45;101712.66;107913;1254;60467;-68
2023/09/27 10:52:36;;;;;;;7.20;5.30;;;;;;;26.43;39.96;101714.08;108196;1251;74003;-69
2023/09/27 10:55:08;;;;;;;10.50;5.50;;;;;;;26.45;39.96;101708.41;108336;1251;71575;-69
2023/09/27 10:57:37;;;;;;;7.50;5.50;;;;;;;26.49;40.12;101706.85;107922;1251;72697;-69
2023/09/27 11:00:09;;;;;;;9.10;5.10;;;;;;;26.53;39.52;101701.15;107942;1254;60340;-69
2023/09/27 11:02:37;;;;;;;7.30;5.10;;;;;;;26.54;38.60;101700.63;108330;1254;59352;-69
2023/09/27 11:05:06;;;;;;;6.90;4.80;;;;;;;26.51;39.00;101697.45;108038;1251;74330;-69
2023/09/27 11:07:49;;;;;;;9.30;5.40;;;;;;;26.50;39.45;101697.26;108141;1254;71784;-69
2023/09/27 11:10:18;;;;;;;;;;;;;;;26.56;39.50;101693.93;108134;1254;71908;-69
2023/09/27 11:12:46;;;;;;;7.40;5.30;;;;;;;26.62;39.35;101691.02;108127;1254;60345;-69
2023/09/27 11:15:22;;;;;;;8.20;5.10;;;;;;;26.62;38.94;101689.55;108133;1256;60553;-69
2023/09/27 11:17:56;;;;;;;7.30;5.00;;;;;;;26.61;38.41;101688.23;108156;1254;72500;-69
2023/09/27 11:20:24;;;;;;;7.40;5.10;;;;;;;26.64;38.53;101691.16;108113;1253;73106;-70
2023/09/27 11:22:57;;;;;;;7.90;4.80;;;;;;;26.68;38.22;101689.83;108242;1251;72759;-69
2023/09/27 11:25:32;;;;;;;9.00;5.30;;;;;;;26.76;37.64;101683.84;108286;1251;60383;-70
2023/09/27 11:28:00;;;;;;;5.80;4.50;;;;;;;26.81;36.48;101681.66;108137;1254;62083;-70